Arabi, Louisiana
Current Conditions -  °F | °C
As of 12:55 AM on Saturday 25 Oct 2014 (Local Time) from KVSH Reporting Station
Clear Clear  
Wind Chill: 66°   Ceiling: Unl
Heat Index: 66°   Visibility: 10mi
Dew Point: 48°   Wind: 5mph
Humidity: 52%   Direction: 10°N
Pressure: 30.11"   Gusts: NA
Location:  29.95°N, 90.01°W
Report Text: KVSH 250555Z AUTO 01004KT 10SM CLR 19/09 A3011 RMK AO1 10220 20190 52003
Loading
Personal Weather Stations






























Interactive Weather Map
Tropical Storm Tracking
New forecast layout! Learn more

10-Day Weather Forecast

Advertisements
Track Severe Weather on mobile